createdAt,value
2022-08-16T00:00:25.109Z,78.39
2022-08-16T00:01:26.617Z,78.39
2022-08-16T00:02:26.101Z,78.69
2022-08-16T00:03:25.067Z,78.69
2022-08-16T00:04:25.096Z,78.49
2022-08-16T00:05:25.050Z,78.59
2022-08-16T00:06:25.046Z,78.19
2022-08-16T00:07:25.016Z,78.28
2022-08-16T00:08:36.068Z,78.39
2022-08-16T00:09:25.998Z,78.19
2022-08-16T00:10:25.006Z,78.19
2022-08-16T00:11:24.968Z,78.28
2022-08-16T00:12:24.977Z,78.39
2022-08-16T00:13:24.946Z,78.49
2022-08-16T00:14:24.936Z,78.19
2022-08-16T00:15:24.952Z,78.28
2022-08-16T00:17:05.735Z,78.39
2022-08-16T00:17:25.960Z,78.39
2022-08-16T00:18:29.487Z,78.19
2022-08-16T00:19:28.402Z,77.98
2022-08-16T00:20:25.900Z,78.28
2022-08-16T00:21:24.855Z,78.19
2022-08-16T00:22:25.435Z,78.28
2022-08-16T00:23:34.553Z,78.39
2022-08-16T00:24:32.808Z,78.19
2022-08-16T00:26:13.641Z,78.19
2022-08-16T00:26:35.104Z,78.59
2022-08-16T00:27:25.792Z,78.49
2022-08-16T00:28:28.637Z,78.42
2022-08-16T00:29:24.763Z,78.52
2022-08-16T00:30:28.721Z,78.92
2022-08-16T00:31:24.735Z,79.13
2022-08-16T00:32:24.734Z,79.13
2022-08-16T00:33:24.712Z,78.83
2022-08-16T00:34:43.320Z,79.03
2022-08-16T00:35:25.692Z,78.83
2022-08-16T00:36:24.682Z,79.13
2022-08-16T00:37:25.142Z,79.33
2022-08-16T00:38:40.890Z,79.33
2022-08-16T00:39:25.669Z,79.13
2022-08-16T00:40:33.513Z,79.13
2022-08-16T00:41:25.613Z,79.33
2022-08-16T00:42:30.542Z,79.63
2022-08-16T00:43:25.592Z,79.73
2022-08-16T00:44:32.870Z,79.83
2022-08-16T00:45:25.585Z,79.93
2022-08-16T00:46:33.840Z,79.93
2022-08-16T00:47:25.543Z,79.83
2022-08-16T00:48:28.771Z,79.73
2022-08-16T00:49:25.522Z,79.63
2022-08-16T00:50:35.909Z,79.53
2022-08-16T00:51:25.513Z,79.43
2022-08-16T00:52:29.462Z,79.43
2022-08-16T00:53:25.483Z,79.73
2022-08-16T00:54:24.470Z,79.83
2022-08-16T00:55:24.459Z,79.83
2022-08-16T00:56:57.518Z,79.53
2022-08-16T00:57:25.739Z,79.63
2022-08-16T00:58:34.279Z,79.73
2022-08-16T00:59:25.412Z,79.83
2022-08-16T01:00:24.400Z,79.73
2022-08-16T01:01:24.425Z,79.83
2022-08-16T01:02:31.208Z,79.73
2022-08-16T01:03:31.760Z,79.83
2022-08-16T01:04:29.092Z,79.63
2022-08-16T01:05:25.343Z,79.53
2022-08-16T01:06:40.057Z,79.53
2022-08-16T01:07:25.402Z,79.43
2022-08-16T01:08:35.319Z,79.33
2022-08-16T01:09:25.290Z,79.43
2022-08-16T01:10:32.759Z,79.43
2022-08-16T01:11:25.270Z,79.53
2022-08-16T01:12:26.602Z,79.53
2022-08-16T01:13:24.250Z,79.53
2022-08-16T01:14:26.215Z,79.83
2022-08-16T01:15:25.220Z,79.83
2022-08-16T01:16:24.221Z,79.83
2022-08-16T01:17:24.432Z,79.83
2022-08-16T01:18:39.814Z,80.04
2022-08-16T01:19:25.169Z,79.73
2022-08-16T01:20:30.098Z,80.04
2022-08-16T01:21:25.183Z,80.04
2022-08-16T01:22:49.668Z,80.04
2022-08-16T01:23:25.127Z,79.83
2022-08-16T01:24:52.396Z,79.53
2022-08-16T01:25:33.872Z,79.57
2022-08-16T01:26:35.019Z,79.67
2022-08-16T01:27:25.088Z,79.77
2022-08-16T01:28:24.079Z,79.97
2022-08-16T01:29:45.498Z,80.07
2022-08-16T01:30:26.458Z,80.18
2022-08-16T01:31:31.032Z,80.27
2022-08-16T01:32:31.427Z,80.27
2022-08-16T01:33:25.009Z,80.27
2022-08-16T01:34:26.656Z,80.38
2022-08-16T01:35:23.986Z,80.47
2022-08-16T01:36:26.604Z,80.68
2022-08-16T01:37:23.988Z,80.88
2022-08-16T01:38:25.901Z,80.88
2022-08-16T01:39:23.953Z,80.98
2022-08-16T01:40:23.935Z,81.28
2022-08-16T01:41:23.917Z,81.28
2022-08-16T01:42:23.910Z,81.52
2022-08-16T01:43:23.937Z,81.52
2022-08-16T01:44:23.890Z,81.42
2022-08-16T01:45:40.620Z,81.32
2022-08-16T01:46:29.619Z,81.52
2022-08-16T01:47:24.847Z,81.52
2022-08-16T01:48:23.837Z,81.52
2022-08-16T01:49:23.836Z,81.42
2022-08-16T01:50:42.034Z,81.52
2022-08-16T01:51:24.808Z,81.73
2022-08-16T01:52:29.499Z,81.42
2022-08-16T01:53:24.845Z,81.62
2022-08-16T01:54:31.248Z,81.62
2022-08-16T01:55:24.770Z,81.62
2022-08-16T01:56:25.132Z,81.73
2022-08-16T01:57:24.700Z,81.82
2022-08-16T01:58:23.729Z,81.93
2022-08-16T01:59:23.706Z,81.93
2022-08-16T02:00:29.081Z,81.87
2022-08-16T02:01:25.959Z,81.67
2022-08-16T02:02:27.177Z,81.56
2022-08-16T02:03:24.663Z,81.46
2022-08-16T02:04:40.094Z,81.56
2022-08-16T02:05:24.636Z,81.87
2022-08-16T02:06:34.487Z,81.87
2022-08-16T02:07:24.616Z,81.87
2022-08-16T02:08:33.798Z,81.76
2022-08-16T02:09:24.593Z,81.76
2022-08-16T02:10:24.583Z,81.76
2022-08-16T02:11:23.576Z,81.90
2022-08-16T02:12:49.829Z,81.90
2022-08-16T02:13:27.600Z,82.01
2022-08-16T02:14:26.241Z,82.31
2022-08-16T02:15:24.827Z,82.51
2022-08-16T02:16:23.544Z,82.75
2022-08-16T02:17:23.494Z,82.75
2022-08-16T02:18:23.485Z,82.75
2022-08-16T02:19:23.502Z,82.75
2022-08-16T02:20:26.180Z,82.65
2022-08-16T02:21:31.400Z,82.65
2022-08-16T02:22:34.049Z,82.75
2022-08-16T02:23:24.424Z,82.65
2022-08-16T02:24:32.490Z,82.65
2022-08-16T02:25:24.406Z,82.75
2022-08-16T02:26:23.395Z,82.85
2022-08-16T02:27:23.384Z,82.99
2022-08-16T02:28:23.885Z,83.09
2022-08-16T02:29:23.364Z,83.19
2022-08-16T02:30:37.553Z,83.19
2022-08-16T02:32:04.427Z,83.29
2022-08-16T02:32:50.649Z,83.19
2022-08-16T02:33:43.258Z,82.99
2022-08-16T02:34:34.928Z,82.89
2022-08-16T02:35:24.290Z,82.69
2022-08-16T02:36:47.987Z,82.69
2022-08-16T02:37:24.265Z,82.59
2022-08-16T02:38:24.272Z,82.79
2022-08-16T02:39:23.242Z,82.79
2022-08-16T02:40:23.233Z,82.79
2022-08-16T02:41:23.222Z,82.69
2022-08-16T02:42:23.205Z,82.28
2022-08-16T02:43:26.459Z,82.08
2022-08-16T02:44:23.204Z,82.08
2022-08-16T02:45:24.917Z,82.32
2022-08-16T02:46:30.002Z,82.42
2022-08-16T02:47:25.323Z,82.32
2022-08-16T02:48:28.494Z,82.32
2022-08-16T02:49:32.322Z,82.42
2022-08-16T02:50:54.088Z,82.53
2022-08-16T02:51:24.103Z,82.62
2022-08-16T02:52:24.717Z,82.42
2022-08-16T02:53:23.322Z,82.22
2022-08-16T02:54:23.940Z,82.22
2022-08-16T02:55:40.725Z,82.32
2022-08-16T02:56:24.041Z,82.22
2022-08-16T02:57:24.034Z,82.42
2022-08-16T02:58:24.750Z,82.53
2022-08-16T02:59:23.010Z,82.73
2022-08-16T03:00:33.708Z,82.83
2022-08-16T03:01:25.049Z,82.73
2022-08-16T03:02:31.791Z,82.62
2022-08-16T03:03:24.406Z,82.73
2022-08-16T03:04:39.726Z,82.73
2022-08-16T03:05:23.950Z,82.62
2022-08-16T03:06:42.326Z,82.62
2022-08-16T03:07:27.529Z,82.62
2022-08-16T03:08:50.266Z,82.42
2022-08-16T03:09:23.889Z,82.56
2022-08-16T03:10:22.901Z,82.67
2022-08-16T03:11:23.869Z,82.56
2022-08-16T03:12:30.521Z,82.26
2022-08-16T03:13:23.848Z,82.26
2022-08-16T03:14:24.493Z,82.46
2022-08-16T03:15:22.827Z,82.46
2022-08-16T03:16:37.649Z,82.50
2022-08-16T03:17:23.798Z,82.90
2022-08-16T03:18:40.219Z,82.90
2022-08-16T03:19:23.779Z,83.01
2022-08-16T03:20:32.511Z,82.90
2022-08-16T03:21:23.779Z,82.90
2022-08-16T03:22:28.380Z,82.81
2022-08-16T03:23:23.729Z,82.81
2022-08-16T03:24:28.303Z,82.81
2022-08-16T03:25:23.719Z,82.81
2022-08-16T03:26:22.689Z,82.81
2022-08-16T03:27:22.698Z,82.81
2022-08-16T03:28:22.667Z,82.90
2022-08-16T03:29:22.658Z,82.90
2022-08-16T03:30:22.649Z,82.90
2022-08-16T03:31:22.637Z,83.04
2022-08-16T03:32:22.627Z,83.01
2022-08-16T03:33:22.625Z,83.01
2022-08-16T03:34:22.597Z,83.01
2022-08-16T03:35:22.592Z,83.25
2022-08-16T03:36:32.618Z,83.45
2022-08-16T03:37:23.589Z,83.35
2022-08-16T03:38:34.372Z,83.35
2022-08-16T03:39:23.629Z,83.35
2022-08-16T03:40:23.284Z,83.35
2022-08-16T03:41:25.706Z,83.45
2022-08-16T03:42:23.509Z,83.55
2022-08-16T03:43:22.508Z,83.65
2022-08-16T03:44:44.241Z,83.55
2022-08-16T03:45:27.236Z,83.55
2022-08-16T03:46:47.825Z,83.59
2022-08-16T03:47:23.455Z,83.69
2022-08-16T03:48:36.918Z,83.80
2022-08-16T03:49:23.435Z,83.90
2022-08-16T03:50:25.820Z,84.00
2022-08-16T03:51:23.677Z,84.20
2022-08-16T03:52:23.405Z,84.20
2022-08-16T03:53:22.375Z,84.41
2022-08-16T03:54:22.375Z,84.41
2022-08-16T03:55:22.376Z,84.50
2022-08-16T03:56:23.334Z,84.70
2022-08-16T03:57:22.335Z,84.70
2022-08-16T03:58:22.316Z,84.81
2022-08-16T03:59:22.384Z,84.81
2022-08-16T04:00:35.826Z,84.70
2022-08-16T04:01:23.329Z,84.70
2022-08-16T04:02:31.230Z,84.70
2022-08-16T04:03:23.266Z,84.61
2022-08-16T04:04:30.943Z,84.61
2022-08-16T04:05:23.254Z,84.61
2022-08-16T04:06:22.237Z,84.61
2022-08-16T04:07:22.216Z,84.50
2022-08-16T04:08:23.487Z,84.50
2022-08-16T04:09:22.194Z,84.50
2022-08-16T04:10:36.254Z,84.50
2022-08-16T04:11:23.828Z,84.61
2022-08-16T04:13:04.265Z,84.70
2022-08-16T04:14:01.222Z,84.81
2022-08-16T04:14:33.228Z,84.70
2022-08-16T04:15:23.124Z,84.81
2022-08-16T04:16:26.212Z,84.81
2022-08-16T04:17:22.093Z,84.91
2022-08-16T04:18:22.103Z,84.81
2022-08-16T04:19:22.073Z,84.81
2022-08-16T04:20:29.527Z,84.70
2022-08-16T04:21:29.291Z,84.81
2022-08-16T04:22:27.666Z,84.81
2022-08-16T04:23:22.023Z,84.81
2022-08-16T04:24:22.043Z,84.70
2022-08-16T04:25:23.001Z,84.91
2022-08-16T04:26:21.992Z,84.91
2022-08-16T04:27:21.980Z,84.81
2022-08-16T04:28:54.397Z,84.81
2022-08-16T04:29:24.953Z,84.91
2022-08-16T04:30:31.805Z,84.91
2022-08-16T04:31:22.931Z,84.81
2022-08-16T04:32:21.921Z,84.81
2022-08-16T04:33:27.092Z,84.81
2022-08-16T04:34:24.962Z,84.91
2022-08-16T04:35:22.802Z,84.81
2022-08-16T04:36:21.881Z,84.91
2022-08-16T04:37:21.860Z,85.01
2022-08-16T04:38:21.858Z,85.11
2022-08-16T04:39:23.833Z,85.21
2022-08-16T04:40:25.210Z,85.31
2022-08-16T04:41:32.317Z,85.42
2022-08-16T04:42:25.935Z,85.31
2022-08-16T04:43:21.799Z,85.11
2022-08-16T04:44:32.492Z,85.21
2022-08-16T04:45:35.967Z,85.72
2022-08-16T04:46:30.737Z,86.13
2022-08-16T04:47:24.107Z,86.13
2022-08-16T04:48:32.887Z,85.82
2022-08-16T04:49:22.728Z,85.31
2022-08-16T04:50:21.730Z,85.62
2022-08-16T04:51:22.699Z,85.52
2022-08-16T04:52:33.430Z,85.21
2022-08-16T04:53:22.678Z,85.31
2022-08-16T04:54:21.678Z,85.42
2022-08-16T04:55:21.656Z,85.62
2022-08-16T04:56:22.672Z,85.82
2022-08-16T04:57:21.630Z,85.93
2022-08-16T04:58:44.865Z,86.13
2022-08-16T04:59:22.607Z,86.53
2022-08-16T05:00:32.446Z,86.39
2022-08-16T05:01:22.672Z,86.29
2022-08-16T05:02:42.309Z,86.39
2022-08-16T05:03:22.613Z,86.59
2022-08-16T05:04:21.558Z,86.69
2022-08-16T05:05:21.548Z,86.59
2022-08-16T05:06:21.528Z,86.59
2022-08-16T05:07:22.516Z,86.69
2022-08-16T05:08:29.400Z,86.65
2022-08-16T05:09:22.815Z,86.45
2022-08-16T05:10:22.878Z,86.35
2022-08-16T05:11:21.467Z,86.15
2022-08-16T05:12:22.300Z,85.94
2022-08-16T05:13:22.457Z,85.94
2022-08-16T05:14:45.269Z,85.94
2022-08-16T05:15:22.417Z,85.84
2022-08-16T05:16:22.911Z,85.84
2022-08-16T05:17:24.646Z,85.84
2022-08-16T05:18:26.977Z,85.80
2022-08-16T05:19:22.374Z,85.70
2022-08-16T05:20:38.794Z,85.50
2022-08-16T05:21:22.359Z,85.39
2022-08-16T05:22:21.337Z,85.19
2022-08-16T05:23:21.326Z,85.10
2022-08-16T05:24:24.632Z,84.79
2022-08-16T05:25:21.347Z,84.79
2022-08-16T05:26:21.295Z,84.59
2022-08-16T05:27:21.284Z,84.45
2022-08-16T05:28:21.276Z,84.34
2022-08-16T05:29:22.261Z,84.04
2022-08-16T05:30:35.109Z,84.04
2022-08-16T05:31:22.235Z,84.04
2022-08-16T05:32:33.927Z,83.84
2022-08-16T05:33:22.225Z,83.64
2022-08-16T05:34:21.195Z,83.09
2022-08-16T05:35:21.193Z,83.29
2022-08-16T05:36:21.174Z,83.50
2022-08-16T05:37:21.168Z,83.29
2022-08-16T05:38:32.939Z,83.29
2022-08-16T05:39:22.483Z,83.09
2022-08-16T05:40:21.144Z,82.95
2022-08-16T05:41:21.116Z,82.75
2022-08-16T05:42:21.104Z,82.45
2022-08-16T05:43:22.104Z,82.45
2022-08-16T05:44:23.341Z,82.65
2022-08-16T05:45:21.444Z,82.35
2022-08-16T05:46:29.529Z,82.24
2022-08-16T05:47:22.044Z,81.44
2022-08-16T05:48:21.035Z,81.10
2022-08-16T05:49:22.452Z,81.20
2022-08-16T05:50:21.010Z,80.99
2022-08-16T05:51:38.587Z,80.69
2022-08-16T05:52:21.989Z,80.69
2022-08-16T05:53:22.224Z,80.65
2022-08-16T05:54:25.583Z,80.45
2022-08-16T05:55:21.963Z,80.45
2022-08-16T05:56:20.943Z,80.76
2022-08-16T05:57:20.933Z,80.92
2022-08-16T05:58:32.922Z,80.01
2022-08-16T05:59:22.246Z,80.21
2022-08-16T06:00:22.603Z,80.62
2022-08-16T06:01:20.922Z,80.21
2022-08-16T06:02:20.873Z,79.77
2022-08-16T06:03:20.862Z,79.67
2022-08-16T06:04:35.655Z,79.77
2022-08-16T06:05:21.833Z,79.27
2022-08-16T06:06:28.949Z,79.27
2022-08-16T06:07:24.827Z,79.57
2022-08-16T06:08:32.069Z,79.43
2022-08-16T06:09:21.792Z,78.02
2022-08-16T06:10:31.860Z,77.51
2022-08-16T06:11:21.770Z,77.51
2022-08-16T06:12:27.218Z,77.51
2022-08-16T06:13:21.743Z,77.68
2022-08-16T06:14:20.731Z,77.98
2022-08-16T06:15:20.722Z,77.98
2022-08-16T06:16:20.703Z,77.88
2022-08-16T06:17:21.543Z,77.58
2022-08-16T06:18:20.702Z,77.38
2022-08-16T06:19:21.671Z,77.28
2022-08-16T06:20:24.344Z,77.75
2022-08-16T06:21:22.761Z,77.55
2022-08-16T06:22:38.986Z,77.55
2022-08-16T06:23:21.913Z,77.44
2022-08-16T06:24:54.217Z,76.94
2022-08-16T06:25:35.528Z,76.84
2022-08-16T06:26:21.593Z,76.94
2022-08-16T06:27:20.634Z,77.14
2022-08-16T06:28:34.781Z,77.24
2022-08-16T06:29:21.571Z,76.80
2022-08-16T06:30:20.542Z,76.60
2022-08-16T06:31:24.695Z,76.60
2022-08-16T06:32:27.299Z,75.99
2022-08-16T06:33:22.644Z,75.99
2022-08-16T06:34:56.081Z,75.09
2022-08-16T06:35:21.500Z,75.05
2022-08-16T06:36:21.010Z,74.75
2022-08-16T06:37:20.480Z,74.65
2022-08-16T06:38:22.189Z,74.65
2022-08-16T06:39:21.451Z,74.65
2022-08-16T06:40:20.429Z,74.15
2022-08-16T06:41:20.423Z,74.35
2022-08-16T06:42:20.400Z,74.45
2022-08-16T06:43:20.399Z,74.45
2022-08-16T06:44:24.389Z,74.32
2022-08-16T06:45:20.381Z,74.65
2022-08-16T06:46:20.390Z,74.72
2022-08-16T06:47:20.350Z,74.82
2022-08-16T06:48:20.330Z,74.62
2022-08-16T06:49:21.327Z,74.62
2022-08-16T06:50:28.669Z,74.82
2022-08-16T06:51:21.310Z,74.11
2022-08-16T06:52:59.937Z,74.62
2022-08-16T06:53:21.280Z,74.38
2022-08-16T06:54:20.267Z,74.38
2022-08-16T06:55:20.259Z,74.38
2022-08-16T06:56:23.031Z,74.38
2022-08-16T06:57:20.229Z,74.28
2022-08-16T06:58:22.065Z,73.18
2022-08-16T06:59:20.209Z,72.47
2022-08-16T07:00:24.839Z,72.67
2022-08-16T07:01:24.816Z,72.67
2022-08-16T07:02:32.895Z,72.57
2022-08-16T07:03:27.823Z,72.57
2022-08-16T07:04:33.317Z,73.04
2022-08-16T07:05:21.148Z,72.74
2022-08-16T07:06:21.728Z,72.94
2022-08-16T07:07:21.113Z,72.53
2022-08-16T07:08:20.097Z,72.24
2022-08-16T07:09:20.087Z,72.44
2022-08-16T07:10:20.078Z,73.14
2022-08-16T07:11:47.954Z,72.94
2022-08-16T07:12:21.062Z,73.34
2022-08-16T07:13:43.695Z,73.34
2022-08-16T07:14:26.318Z,73.74
2022-08-16T07:15:21.020Z,73.41
2022-08-16T07:16:20.484Z,73.50
2022-08-16T07:17:20.108Z,72.10
2022-08-16T07:18:19.979Z,72.00
2022-08-16T07:19:19.970Z,71.60
2022-08-16T07:20:35.204Z,71.36
2022-08-16T07:21:20.948Z,71.36
2022-08-16T07:22:38.795Z,71.16
2022-08-16T07:23:20.927Z,70.86
2022-08-16T07:24:29.836Z,71.56
2022-08-16T07:25:22.845Z,71.73
2022-08-16T07:26:25.294Z,71.73
2022-08-16T07:27:20.998Z,71.03
2022-08-16T07:28:21.001Z,71.63
2022-08-16T07:29:19.858Z,71.63
2022-08-16T07:30:39.907Z,70.83
2022-08-16T07:31:20.888Z,70.53
2022-08-16T07:32:19.817Z,70.83
2022-08-16T07:33:52.897Z,70.69
2022-08-16T07:34:20.799Z,69.69
2022-08-16T07:35:20.788Z,69.39
2022-08-16T07:36:21.889Z,69.69
2022-08-16T07:37:23.055Z,69.19
2022-08-16T07:38:31.818Z,68.59
2022-08-16T07:39:20.744Z,67.55
2022-08-16T07:40:24.885Z,67.85
2022-08-16T07:41:20.717Z,67.35
2022-08-16T07:42:20.230Z,67.25
2022-08-16T07:43:20.734Z,67.25
2022-08-16T07:44:19.684Z,67.55
2022-08-16T07:45:19.665Z,66.65
2022-08-16T07:46:38.090Z,66.32
2022-08-16T07:47:24.435Z,66.02
2022-08-16T07:48:19.646Z,65.12
2022-08-16T07:49:19.638Z,65.42
2022-08-16T07:50:55.985Z,64.72
2022-08-16T07:51:20.626Z,64.89
2022-08-16T07:52:20.357Z,64.18
2022-08-16T07:53:19.576Z,64.09
2022-08-16T07:54:20.920Z,63.28
2022-08-16T07:55:19.557Z,61.95
2022-08-16T07:56:19.536Z,63.35
2022-08-16T07:57:19.537Z,62.55
2022-08-16T07:58:33.938Z,61.75
2022-08-16T07:59:20.505Z,61.82
2022-08-16T08:00:19.486Z,61.32
2022-08-16T08:01:19.561Z,60.52
2022-08-16T08:02:21.149Z,61.12
2022-08-16T08:03:19.463Z,59.49
2022-08-16T08:04:19.445Z,59.69
2022-08-16T08:05:35.429Z,60.10
2022-08-16T08:06:20.436Z,60.49
2022-08-16T08:07:19.413Z,60.77
2022-08-16T08:08:51.531Z,60.96
2022-08-16T08:09:20.395Z,60.86
2022-08-16T08:10:29.414Z,60.57
2022-08-16T08:11:21.424Z,60.46
2022-08-16T08:12:32.126Z,59.74
2022-08-16T08:13:20.354Z,59.94
2022-08-16T08:14:29.920Z,60.44
2022-08-16T08:15:25.084Z,61.04
2022-08-16T08:16:20.960Z,58.73
2022-08-16T08:17:19.304Z,57.64
2022-08-16T08:18:30.557Z,57.44
2022-08-16T08:19:20.275Z,58.44
2022-08-16T08:20:26.171Z,58.71
2022-08-16T08:21:26.361Z,60.11
2022-08-16T08:22:22.110Z,60.21
2022-08-16T08:23:19.227Z,59.51
2022-08-16T08:24:19.228Z,58.28
2022-08-16T08:25:19.243Z,58.98
2022-08-16T08:26:19.195Z,58.08
2022-08-16T08:27:23.028Z,58.48
2022-08-16T08:28:20.077Z,59.18
2022-08-16T08:29:23.094Z,57.48
2022-08-16T08:30:50.167Z,57.78
2022-08-16T08:31:20.152Z,58.38
2022-08-16T08:32:58.624Z,58.28
2022-08-16T08:33:20.114Z,58.78
2022-08-16T08:34:19.104Z,58.78
2022-08-16T08:35:19.084Z,58.88
2022-08-16T08:36:21.912Z,58.18
2022-08-16T08:37:19.092Z,58.88
2022-08-16T08:38:45.580Z,59.28
2022-08-16T08:39:21.008Z,58.78
2022-08-16T08:40:19.183Z,58.38
2022-08-16T08:41:23.600Z,57.06
2022-08-16T08:42:26.769Z,56.26
2022-08-16T08:43:20.004Z,56.66
2022-08-16T08:44:28.713Z,55.76
2022-08-16T08:45:43.076Z,57.26
2022-08-16T08:46:21.649Z,56.16
2022-08-16T08:47:18.956Z,55.56
2022-08-16T08:48:34.778Z,55.13
2022-08-16T08:49:19.934Z,55.24
2022-08-16T08:50:32.041Z,55.04
2022-08-16T08:51:19.908Z,54.34
2022-08-16T08:52:34.915Z,54.53
2022-08-16T08:53:19.883Z,53.71
2022-08-16T08:54:20.670Z,53.52
2022-08-16T08:55:18.855Z,54.41
2022-08-16T08:56:23.059Z,53.91
2022-08-16T08:57:19.834Z,54.51
2022-08-16T08:58:19.826Z,54.41
2022-08-16T08:59:20.036Z,54.28
2022-08-16T09:00:21.359Z,54.08
2022-08-16T09:01:18.792Z,53.69
2022-08-16T09:02:19.824Z,53.99
2022-08-16T09:03:18.763Z,54.28
2022-08-16T09:04:18.796Z,54.49
2022-08-16T09:05:18.741Z,53.89
2022-08-16T09:06:18.722Z,54.38
2022-08-16T09:07:18.899Z,54.88
2022-08-16T09:08:18.701Z,54.49
2022-08-16T09:09:18.693Z,54.26
2022-08-16T09:10:20.839Z,53.86
2022-08-16T09:11:18.673Z,53.66
2022-08-16T09:12:30.266Z,54.16
2022-08-16T09:13:19.643Z,53.76
2022-08-16T09:14:24.330Z,53.36
2022-08-16T09:15:21.657Z,52.97
2022-08-16T09:17:01.565Z,53.27
2022-08-16T09:17:45.295Z,53.53
2022-08-16T09:18:26.470Z,53.94
2022-08-16T09:19:19.580Z,53.83
2022-08-16T09:20:19.960Z,53.64
2022-08-16T09:21:18.571Z,54.63
2022-08-16T09:22:20.678Z,54.13
2022-08-16T09:23:18.620Z,53.64
2022-08-16T09:24:29.148Z,53.16
2022-08-16T09:25:25.763Z,53.96
2022-08-16T09:26:46.035Z,54.06
2022-08-16T09:27:19.493Z,55.05
2022-08-16T09:29:13.877Z,54.03
2022-08-16T09:29:24.195Z,54.83
2022-08-16T09:30:34.593Z,54.73
2022-08-16T09:31:19.530Z,53.02
2022-08-16T09:32:28.712Z,52.12
2022-08-16T09:33:19.815Z,52.62
2022-08-16T09:34:19.204Z,52.62
2022-08-16T09:35:18.393Z,52.81
2022-08-16T09:36:32.452Z,53.31
2022-08-16T09:37:19.833Z,53.09
2022-08-16T09:38:31.217Z,53.69
2022-08-16T09:39:19.345Z,52.29
2022-08-16T09:40:32.765Z,52.59
2022-08-16T09:41:19.322Z,52.56
2022-08-16T09:42:19.033Z,53.16
2022-08-16T09:43:57.943Z,52.76
2022-08-16T09:45:10.886Z,52.26
2022-08-16T09:45:19.283Z,51.95
2022-08-16T09:46:44.821Z,51.65
2022-08-16T09:47:23.391Z,51.54
2022-08-16T09:48:43.865Z,50.85
2022-08-16T09:49:20.063Z,50.65
2022-08-16T09:50:22.753Z,52.44
2022-08-16T09:51:18.212Z,51.65
2022-08-16T09:52:19.304Z,51.65
2022-08-16T09:53:18.211Z,51.32
2022-08-16T09:54:21.068Z,51.15
2022-08-16T09:55:18.162Z,51.92
2022-08-16T09:56:18.154Z,51.05
2022-08-16T09:57:18.158Z,51.03
2022-08-16T09:58:40.660Z,51.03
2022-08-16T09:59:19.131Z,51.23
2022-08-16T10:00:44.904Z,52.12
2022-08-16T10:01:19.125Z,51.52
2022-08-16T10:02:27.613Z,50.73
2022-08-16T10:03:19.119Z,50.70
2022-08-16T10:04:29.305Z,51.10
2022-08-16T10:05:19.056Z,51.40
2022-08-16T10:06:18.043Z,50.81
2022-08-16T10:07:18.022Z,51.00
2022-08-16T10:08:25.939Z,51.40
2022-08-16T10:09:19.022Z,50.98
2022-08-16T10:10:18.900Z,50.98
2022-08-16T10:11:23.842Z,49.59
2022-08-16T10:12:20.049Z,49.79
2022-08-16T10:13:17.960Z,50.09
2022-08-16T10:14:19.923Z,51.28
2022-08-16T10:15:18.931Z,50.48
2022-08-16T10:16:18.022Z,51.37
2022-08-16T10:17:17.912Z,51.37
2022-08-16T10:19:02.147Z,50.26
2022-08-16T10:19:19.409Z,50.06
2022-08-16T10:20:18.817Z,49.17
2022-08-16T10:21:17.864Z,48.27
2022-08-16T10:22:17.852Z,48.47
2022-08-16T10:23:18.842Z,49.17
2022-08-16T10:24:28.454Z,47.98
2022-08-16T10:27:18.287Z,47.49
2022-08-16T10:27:18.693Z,46.79
2022-08-16T10:27:27.323Z,46.19
2022-08-16T10:28:27.790Z,48.08
2022-08-16T10:29:19.931Z,47.56
2022-08-16T10:30:26.234Z,47.16
2022-08-16T10:31:43.468Z,47.46
2022-08-16T10:32:20.951Z,46.25
2022-08-16T10:33:17.728Z,45.26
2022-08-16T10:34:31.349Z,44.56
2022-08-16T10:35:18.792Z,45.36
2022-08-16T10:36:38.609Z,44.96
2022-08-16T10:37:18.709Z,45.45
2022-08-16T10:38:27.232Z,45.26
2022-08-16T10:39:18.661Z,47.04
2022-08-16T10:40:29.814Z,46.25
2022-08-16T10:41:22.088Z,46.74
2022-08-16T10:42:18.623Z,46.45
2022-08-16T10:43:18.487Z,45.06
2022-08-16T10:44:17.768Z,45.14
2022-08-16T10:45:17.590Z,46.03
2022-08-16T10:46:39.552Z,45.43
2022-08-16T10:47:18.561Z,46.80
2022-08-16T10:48:24.062Z,46.20
2022-08-16T10:49:18.550Z,44.23
2022-08-16T10:50:18.883Z,45.12
2022-08-16T10:51:17.519Z,44.90
2022-08-16T10:52:19.123Z,43.91
2022-08-16T10:53:17.500Z,45.29
2022-08-16T10:54:28.310Z,44.70
2022-08-16T10:56:55.425Z,44.50
2022-08-16T10:57:18.451Z,44.10
2022-08-16T10:58:17.508Z,43.91
2022-08-16T10:59:45.102Z,45.07
2022-08-16T11:00:22.370Z,44.97
2022-08-16T11:01:43.839Z,43.29
2022-08-16T11:02:57.652Z,43.19
2022-08-16T11:05:18.432Z,44.50
2022-08-16T11:06:17.367Z,43.61
2022-08-16T11:08:31.285Z,43.41
2022-08-16T11:09:24.448Z,43.31
2022-08-16T11:10:20.216Z,42.99
2022-08-16T11:11:19.679Z,41.73
2022-08-16T11:12:17.283Z,41.91
2022-08-16T11:14:18.271Z,41.91
2022-08-16T11:15:18.045Z,41.99
2022-08-16T11:17:18.237Z,41.89
2022-08-16T11:18:54.762Z,40.11
2022-08-16T11:19:18.262Z,40.70
2022-08-16T11:21:29.424Z,39.81
2022-08-16T11:22:39.487Z,41.10
2022-08-16T11:23:18.150Z,41.00
2022-08-16T11:24:41.177Z,41.47
2022-08-16T11:26:07.840Z,42.07
2022-08-16T11:26:23.818Z,41.77
2022-08-16T11:27:20.476Z,40.69
2022-08-16T11:29:12.269Z,40.41
2022-08-16T11:29:18.101Z,42.58
2022-08-16T11:30:20.024Z,40.90
2022-08-16T11:31:17.062Z,41.57
2022-08-16T11:32:20.212Z,41.67
2022-08-16T11:33:18.264Z,40.48
2022-08-16T11:34:19.805Z,40.88
2022-08-16T11:35:17.239Z,40.11
2022-08-16T11:36:25.032Z,42.16
2022-08-16T11:37:20.041Z,41.17
2022-08-16T11:38:47.605Z,40.78
2022-08-16T11:39:17.962Z,41.57
2022-08-16T11:40:17.017Z,40.86
2022-08-16T11:41:16.952Z,41.85
2022-08-16T11:42:28.162Z,41.75
2022-08-16T11:43:17.914Z,42.02
2022-08-16T11:44:20.487Z,41.73
2022-08-16T11:45:17.902Z,42.10
2022-08-16T11:46:44.238Z,41.31
2022-08-16T11:47:17.872Z,40.92
2022-08-16T11:48:16.863Z,41.31
2022-08-16T11:49:16.853Z,40.92
2022-08-16T11:50:16.891Z,42.00
2022-08-16T11:51:16.822Z,41.81
2022-08-16T11:52:16.823Z,41.31
2022-08-16T11:53:16.803Z,41.22
2022-08-16T11:54:20.961Z,41.22
2022-08-16T11:55:17.792Z,41.51
2022-08-16T11:56:16.772Z,42.10
2022-08-16T11:57:17.762Z,42.10
2022-08-16T11:58:16.751Z,41.31
2022-08-16T11:59:16.733Z,40.72
2022-08-16T12:00:44.925Z,40.82
2022-08-16T12:01:17.751Z,41.61
2022-08-16T12:02:32.275Z,41.02
2022-08-16T12:03:17.693Z,41.71
2022-08-16T12:04:16.730Z,40.92
2022-08-16T12:05:16.674Z,40.72
2022-08-16T12:06:25.600Z,41.12
2022-08-16T12:07:17.651Z,40.72
2022-08-16T12:08:18.093Z,41.22
2022-08-16T12:09:16.630Z,41.41
2022-08-16T12:10:16.624Z,41.51
2022-08-16T12:11:16.631Z,41.91
2022-08-16T12:12:18.582Z,42.20
2022-08-16T12:13:16.591Z,42.00
2022-08-16T12:14:16.572Z,40.92
2022-08-16T12:15:16.562Z,40.92
2022-08-16T12:16:17.472Z,41.71
2022-08-16T12:17:16.553Z,41.31
2022-08-16T12:18:20.882Z,41.93
2022-08-16T12:19:17.513Z,42.13
2022-08-16T12:20:18.921Z,41.63
2022-08-16T12:21:16.492Z,41.73
2022-08-16T12:22:19.422Z,42.13
2022-08-16T12:23:17.418Z,41.33
2022-08-16T12:24:16.462Z,41.93
2022-08-16T12:25:16.474Z,41.53
2022-08-16T12:26:16.472Z,40.86
2022-08-16T12:27:16.434Z,42.14
2022-08-16T12:28:16.423Z,41.75
2022-08-16T12:29:17.425Z,41.95
2022-08-16T12:30:21.739Z,42.05
2022-08-16T12:31:17.403Z,43.23
2022-08-16T12:32:38.383Z,41.65
2022-08-16T12:33:25.565Z,41.36
2022-08-16T12:34:19.816Z,41.73
2022-08-16T12:35:17.345Z,41.46
2022-08-16T12:36:16.335Z,40.35
2022-08-16T12:37:16.331Z,40.64
2022-08-16T12:38:41.463Z,40.96
2022-08-16T12:39:17.292Z,40.45
2022-08-16T12:40:17.860Z,40.35
2022-08-16T12:41:24.559Z,39.95
2022-08-16T12:42:17.274Z,39.48
2022-08-16T12:43:16.253Z,39.78
2022-08-16T12:44:20.001Z,40.66
2022-08-16T12:45:16.233Z,40.27
2022-08-16T12:46:16.213Z,40.58
2022-08-16T12:47:16.203Z,41.16
2022-08-16T12:48:33.501Z,41.36
2022-08-16T12:49:17.193Z,41.25
2022-08-16T12:50:16.238Z,41.65
2022-08-16T12:51:22.346Z,41.95
2022-08-16T12:52:33.180Z,41.55
2022-08-16T12:53:17.141Z,40.96
2022-08-16T12:54:16.134Z,40.86
2022-08-16T12:55:16.113Z,40.76
2022-08-16T12:56:16.105Z,40.37
2022-08-16T12:57:16.099Z,40.96
2022-08-16T12:58:48.437Z,41.16
2022-08-16T12:59:20.156Z,40.88